• Join FlightAware (Why Join?)
  • Login
  • US Flag 
01:07PM EDT


 

Airport Tracker/Info


-or-


 

Live Flight TrackerFlight Track Log ✈ SWA1887 ✈ 05-May-2013 ✈ KDEN - KABQ

Flight Track Log - Related Links

Times and Time Zones

All times are in EDT time to prevent confusion due to time zone crossing. See the SWA1887 flight status page for this flight to view local times or setup timezone preferences in your user account.

Time Position Orientation Groundspeed Altitude Reporting Facility
EDT Latitude Longitude Course Direction KTS MPH feet Rate Location/Type
11:09AM 39.7667 -104.6500 204° Southwest 223 257 8,400  Level Denver TRACON
11:10AM 39.7000 -104.6167 159° South 282 325 11,000 2,640 Climbing Denver TRACON
11:11AM 39.6669 -104.6006 159° South 295 339 12,100 2,760 Climbing Denver Center
11:12AM 39.5767 -104.6214 190° South 337 388 15,000 2,820 Climbing Denver Center
11:13AM 39.4678 -104.6444 189° South 377 434 18,000 2,880 Climbing Denver Center
11:14AM 39.3633 -104.6689 190° South 384 442 21,000 2,880 Climbing Denver Center
11:15AM 39.3638 -104.8857 204° Southwest  Level Estimated
11:15AM 39.2464 -104.6922 189° South 397 457 24,000  Level Denver Center
11:16AM 39.1381 -104.7167 190° South 411 473 26,100 1,920 Climbing Denver Center
11:17AM 39.0247 -104.7483 192° South 409 471 28,000 1,800 Climbing Denver Center
11:18AM 38.9175 -104.8150 206° Southwest 424 488 29,900 1,920 Climbing Denver Center
11:19AM 38.8142 -104.8786 206° Southwest 410 472 32,000 960 Climbing Denver Center
11:20AM 38.6969 -104.9550 207° Southwest 401 461 32,000  Level Denver Center
11:21AM 38.5983 -105.0228 208° Southwest 399 459 32,000  Level Denver Center
11:22AM 38.4981 -105.0922 208° Southwest 405 466 32,000  Level Denver Center
11:23AM 38.3983 -105.1608 208° Southwest 404 465 32,000  Level Denver Center
11:24AM 38.2942 -105.2333 209° Southwest 414 476 32,000  Level Denver Center
11:25AM 38.1819 -105.3094 208° Southwest 410 472 32,000  Level Denver Center
11:26AM 38.0839 -105.3767 208° Southwest 415 478 32,000  Level Denver Center
11:27AM 37.9861 -105.4422 208° Southwest 416 479 32,000  Level Denver Center
11:28AM 37.8717 -105.5203 208° Southwest 416 479 32,000  Level Denver Center
11:29AM 37.7731 -105.5872 208° Southwest 420 483 32,000  Level Denver Center
11:30AM 37.6519 -105.6550 204° Southwest 423 487 32,000  Level Denver Center
11:31AM 37.5336 -105.7103 200° South 424 488 32,000  Level Denver Center
11:32AM 37.4272 -105.7586 200° South 425 489 32,000  Level Denver Center
11:33AM 37.3050 -105.8178 201° Southwest 422 486 32,000  Level Denver Center
11:34AM 37.1986 -105.8658 200° South 424 488 32,000  Level Denver Center
11:35AM 37.0922 -105.9169 201° Southwest 425 489 32,000  Level Denver Center
11:36AM 36.9625 -105.9778 201° Southwest 430 495 32,000  Level Denver Center
11:37AM 36.8531 -106.0267 200° South 432 497 32,000  Level Denver Center
11:38AM 36.7342 -106.0828 201° Southwest 430 495 32,000  Level Denver Center
11:40AM 36.6219 -106.1356 201° Southwest 431 496 32,000  Level Denver Center
11:40AM 36.5319 -106.1747 199° South 438 504 32,000  Level Albuquerque Center
11:41AM 36.4067 -106.2319 200° South 432 497 32,000 -300 Level Albuquerque Center
11:42AM 36.2989 -106.2792 199° South 429 494 31,500 -1,740 Descending Albuquerque Center
11:43AM 36.1739 -106.3336 199° South 426 490 28,500 -2,460 Descending Albuquerque Center
11:44AM 36.0867 -106.3739 200° South 415 478 26,500 -2,100 Descending Albuquerque Center
11:45AM 35.9819 -106.4172 199° South 401 461 24,200 -2,040 Descending Albuquerque Center
11:46AM 35.8644 -106.4672 199° South 374 430 22,400 -1,800 Descending Albuquerque Center
11:48AM 35.7781 -106.5028 198° South 352 405 20,600 -1,860 Descending Albuquerque Center
11:49AM 35.6875 -106.5400 198° South 339 390 18,700 -1,860 Descending Albuquerque Center
11:49AM 35.6253 -106.5636 197° South 331 381 17,600 -1,800 Descending Albuquerque Center
11:50AM 35.6017 -106.5750 201° Southwest 331 381 16,900 -2,100 Descending Albuquerque Center
11:50AM 35.5525 -106.5981 201° Southwest 328 377 15,700 -1,800 Descending Albuquerque Center
11:51AM 35.5172 -106.6189 206° Southwest 330 380 15,100 -1,200 Descending Albuquerque Center
11:51AM 35.4669 -106.6464 204° Southwest 315 362 14,500 -1,200 Descending Albuquerque Center
11:52AM 35.4389 -106.6611 203° Southwest 315 362 13,900 -1,500 Descending Albuquerque Center
11:52AM 35.3908 -106.6869 204° Southwest 292 336 13,000 -1,500 Descending Albuquerque Center
11:53AM 35.3639 -106.6997 201° Southwest 299 344 12,400 -1,560 Descending Albuquerque Center
11:53AM 35.3125 -106.7281 204° Southwest 286 329 11,300 -1,500 Descending Albuquerque Center
11:54AM 35.2922 -106.7397 205° Southwest 287 330 10,900 -1,320 Descending Albuquerque Center
11:54AM 35.2431 -106.7694 206° Southwest 275 316 10,000 -1,380 Descending Albuquerque Center
11:55AM 35.2117 -106.7878 206° Southwest 276 318 9,500 -840 Descending Albuquerque Center
11:55AM 35.1792 -106.8067 205° Southwest 248 285 9,200 -540 Descending Albuquerque Center
11:56AM 35.1517 -106.8214 204° Southwest 256 295 9,000 -300 Descending Albuquerque Center
11:56AM 35.1217 -106.8083 160° South 216 249 8,900 -720 Descending Albuquerque Center
11:57AM 35.0981 -106.7856 142° Southeast 230 265 8,300 -1,200 Descending Albuquerque Center
11:57AM 35.0767 -106.7575 133° Southeast 201 231 7,700 -1,080 Descending Albuquerque Center
11:58AM 35.0600 -106.7325 129° Southeast 214 246 7,200 -900 Descending Albuquerque Center
11:58AM 35.0481 -106.7025 116° Southeast 171 197 6,700 -780 Descending Albuquerque Center
11:59AM 35.0447 -106.6822 101° East 181 208 6,400 -840 Descending Albuquerque Center
11:59AM 35.0447 -106.6464 90° East 140 161 5,800 -900 Descending Albuquerque Center
12:00PM 35.0442 -106.6308 92° East 161 185 5,500 -840 Descending Albuquerque Center
12:02PM 35.0402 -106.6092 90° East  Level Estimated